createdAt,value
2019-04-26T00:01:18.296Z,16.20
2019-04-26T00:03:48.785Z,15.77
2019-04-26T00:06:18.754Z,20.13
2019-04-26T00:08:53.538Z,18.90
2019-04-26T00:11:34.954Z,16.83
2019-04-26T00:14:23.252Z,16.27
2019-04-26T00:16:56.481Z,16.43
2019-04-26T00:19:26.351Z,16.47
2019-04-26T00:21:56.025Z,16.10
2019-04-26T00:24:28.486Z,16.23
2019-04-26T00:26:57.035Z,18.10
2019-04-26T00:29:26.533Z,14.60
2019-04-26T00:31:55.935Z,15.13
2019-04-26T00:34:25.366Z,13.67
2019-04-26T00:36:54.870Z,13.40
2019-04-26T00:39:25.052Z,15.50
2019-04-26T00:41:54.846Z,14.67
2019-04-26T00:44:24.259Z,15.47
2019-04-26T00:46:56.751Z,12.47
2019-04-26T00:49:28.335Z,17.67
2019-04-26T00:51:57.961Z,15.80
2019-04-26T00:54:28.553Z,14.00
2019-04-26T00:56:59.028Z,11.47
2019-04-26T00:59:29.316Z,13.53
2019-04-26T01:02:05.273Z,14.87
2019-04-26T01:04:34.680Z,17.40
2019-04-26T01:07:04.670Z,14.37
2019-04-26T01:09:34.531Z,16.53
2019-04-26T01:12:04.104Z,13.87
2019-04-26T01:14:33.812Z,17.60
2019-04-26T01:17:03.664Z,16.73
2019-04-26T01:19:34.045Z,15.63
2019-04-26T01:22:07.372Z,13.73
2019-04-26T01:24:38.813Z,17.97
2019-04-26T01:27:09.935Z,12.97
2019-04-26T01:29:40.746Z,15.10
2019-04-26T01:32:12.935Z,17.67
2019-04-26T01:34:44.156Z,15.20
2019-04-26T01:37:14.227Z,19.17
2019-04-26T01:39:49.411Z,16.00
2019-04-26T01:42:36.763Z,13.97
2019-04-26T01:45:12.529Z,16.93
2019-04-26T01:47:41.956Z,15.40
2019-04-26T01:50:12.473Z,14.93
2019-04-26T01:52:44.594Z,15.70
2019-04-26T01:55:14.562Z,16.27
2019-04-26T01:57:44.551Z,17.80
2019-04-26T02:00:28.145Z,20.30
2019-04-26T02:03:01.213Z,15.97
2019-04-26T02:05:31.986Z,20.07
2019-04-26T02:08:01.518Z,15.27
2019-04-26T02:10:31.429Z,18.97
2019-04-26T02:13:01.623Z,17.90
2019-04-26T02:15:33.571Z,18.77
2019-04-26T02:18:04.151Z,14.40
2019-04-26T02:21:08.016Z,16.23
2019-04-26T02:23:44.403Z,12.67
2019-04-26T02:26:33.327Z,19.30
2019-04-26T02:29:06.058Z,17.67
2019-04-26T02:31:37.788Z,16.40
2019-04-26T02:34:08.381Z,21.43
2019-04-26T02:36:56.295Z,21.10
2019-04-26T02:39:22.401Z,20.73
2019-04-26T02:41:55.114Z,20.33
2019-04-26T02:44:31.354Z,22.10
2019-04-26T02:47:37.275Z,20.77
2019-04-26T02:50:11.625Z,18.70
2019-04-26T02:53:00.365Z,19.47
2019-04-26T02:55:50.633Z,15.27
2019-04-26T02:58:23.115Z,15.07
2019-04-26T03:00:53.918Z,13.80
2019-04-26T03:03:25.319Z,17.83
2019-04-26T03:05:56.449Z,18.20
2019-04-26T03:08:27.950Z,19.37
2019-04-26T03:11:10.999Z,28.00
2019-04-26T03:13:54.569Z,22.63
2019-04-26T03:16:35.352Z,24.97
2019-04-26T03:19:37.767Z,27.33
2019-04-26T03:22:15.093Z,22.40
2019-04-26T03:25:00.214Z,22.83
2019-04-26T03:27:48.762Z,20.93
2019-04-26T03:30:33.345Z,23.07
2019-04-26T03:33:22.969Z,20.67
2019-04-26T03:36:15.077Z,22.53
2019-04-26T03:38:55.867Z,20.17
2019-04-26T03:41:36.609Z,19.80
2019-04-26T03:44:13.878Z,22.80
2019-04-26T03:46:50.772Z,21.27
2019-04-26T03:49:49.514Z,20.80
2019-04-26T03:52:44.115Z,21.80
2019-04-26T03:56:00.535Z,22.10
2019-04-26T03:58:59.883Z,22.83
2019-04-26T04:01:35.412Z,23.00
2019-04-26T04:04:24.661Z,19.13
2019-04-26T04:07:04.322Z,17.97
2019-04-26T04:09:30.345Z,15.50
2019-04-26T04:12:16.592Z,23.93
2019-04-26T04:14:59.673Z,16.30
2019-04-26T04:17:48.276Z,19.30
2019-04-26T04:21:08.448Z,17.30
2019-04-26T04:24:11.672Z,22.00
2019-04-26T04:27:09.137Z,19.43
2019-04-26T04:29:55.502Z,23.43
2019-04-26T04:32:34.838Z,21.00
2019-04-26T04:35:08.350Z,22.43
2019-04-26T04:38:04.248Z,23.00
2019-04-26T04:40:47.301Z,20.57
2019-04-26T04:43:33.948Z,19.63
2019-04-26T04:46:37.480Z,20.00
2019-04-26T04:49:44.126Z,20.93
2019-04-26T04:52:28.536Z,21.23
2019-04-26T04:55:09.724Z,20.13
2019-04-26T04:57:52.478Z,19.87
2019-04-26T05:01:09.647Z,25.30
2019-04-26T05:04:22.717Z,22.67
2019-04-26T05:07:25.067Z,20.37
2019-04-26T05:10:03.652Z,27.37
2019-04-26T05:12:39.558Z,25.53
2019-04-26T05:15:36.259Z,25.37
2019-04-26T05:19:03.227Z,20.87
2019-04-26T05:21:55.089Z,20.77
2019-04-26T05:25:09.488Z,24.57
2019-04-26T05:28:00.851Z,22.73
2019-04-26T05:31:10.610Z,21.17
2019-04-26T05:34:20.829Z,19.90
2019-04-26T05:37:37.176Z,21.80
2019-04-26T05:40:36.968Z,19.87
2019-04-26T05:43:41.400Z,19.93
2019-04-26T05:46:50.213Z,21.60
2019-04-26T05:50:10.150Z,19.90
2019-04-26T05:54:05.497Z,23.47
2019-04-26T05:56:48.543Z,20.63
2019-04-26T05:59:26.426Z,21.17
2019-04-26T06:02:41.079Z,20.03
2019-04-26T06:05:52.307Z,19.50
2019-04-26T06:09:23.721Z,16.83
2019-04-26T06:12:04.012Z,18.57
2019-04-26T06:15:29.511Z,17.83
2019-04-26T06:18:43.212Z,18.97
2019-04-26T06:21:36.320Z,17.87
2019-04-26T06:25:09.499Z,15.27
2019-04-26T06:28:03.971Z,17.43
2019-04-26T06:30:59.500Z,18.50
2019-04-26T06:33:41.514Z,16.33
2019-04-26T06:36:18.471Z,14.93
2019-04-26T06:39:32.970Z,12.77
2019-04-26T06:42:19.029Z,15.47
2019-04-26T06:45:50.478Z,16.00
2019-04-26T06:48:42.424Z,19.27
2019-04-26T06:51:24.522Z,16.83
2019-04-26T06:54:34.331Z,18.27
2019-04-26T06:57:40.820Z,18.63
2019-04-26T07:00:19.215Z,18.77
2019-04-26T07:03:24.539Z,18.10
2019-04-26T07:06:00.875Z,21.13
2019-04-26T07:08:57.366Z,15.67
2019-04-26T07:12:30.198Z,18.83
2019-04-26T07:15:29.769Z,16.50
2019-04-26T07:18:13.899Z,18.00
2019-04-26T07:21:00.731Z,17.37
2019-04-26T07:24:43.910Z,16.83
2019-04-26T07:27:42.995Z,19.23
2019-04-26T07:30:40.859Z,16.07
2019-04-26T07:33:33.735Z,23.87
2019-04-26T07:36:29.503Z,17.27
2019-04-26T07:39:33.878Z,16.57
2019-04-26T07:42:30.189Z,20.43
2019-04-26T07:45:20.233Z,17.17
2019-04-26T07:48:42.388Z,16.17
2019-04-26T07:52:08.505Z,18.97
2019-04-26T07:55:13.371Z,16.13
2019-04-26T07:58:09.069Z,15.50
2019-04-26T08:00:47.487Z,18.77
2019-04-26T08:03:37.987Z,14.73
2019-04-26T08:06:22.277Z,17.10
2019-04-26T08:09:06.142Z,13.93
2019-04-26T08:11:50.002Z,14.57
2019-04-26T08:14:25.415Z,16.87
2019-04-26T08:17:24.944Z,14.87
2019-04-26T08:20:16.057Z,17.03
2019-04-26T08:22:48.684Z,17.63
2019-04-26T08:25:20.357Z,18.33
2019-04-26T08:27:53.047Z,17.77
2019-04-26T08:30:24.023Z,20.27
2019-04-26T08:32:57.724Z,18.43
2019-04-26T08:35:30.364Z,16.20
2019-04-26T08:38:16.395Z,20.40
2019-04-26T08:40:41.267Z,16.10
2019-04-26T08:43:31.787Z,16.17
2019-04-26T08:46:22.406Z,14.87
2019-04-26T08:49:15.165Z,17.33
2019-04-26T08:51:47.746Z,14.83
2019-04-26T08:54:26.739Z,13.80
2019-04-26T08:57:02.812Z,15.50
2019-04-26T08:59:37.102Z,10.68
2019-04-26T09:02:37.951Z,12.53
2019-04-26T09:05:37.824Z,15.88
2019-04-26T09:08:10.263Z,10.75
2019-04-26T09:10:43.208Z,11.80
2019-04-26T09:13:16.824Z,13.15
2019-04-26T09:16:02.679Z,11.88
2019-04-26T09:18:42.483Z,10.70
2019-04-26T09:21:03.446Z,11.45
2019-04-26T09:23:51.946Z,10.75
2019-04-26T09:26:46.624Z,13.68
2019-04-26T09:29:30.396Z,11.50
2019-04-26T09:32:09.324Z,15.35
2019-04-26T09:34:41.298Z,13.15
2019-04-26T09:37:10.748Z,13.78
2019-04-26T09:39:41.608Z,15.32
2019-04-26T09:42:20.797Z,11.93
2019-04-26T09:44:56.961Z,11.63
2019-04-26T09:47:34.945Z,13.43
2019-04-26T09:50:22.453Z,12.78
2019-04-26T09:52:52.465Z,15.45
2019-04-26T09:55:34.538Z,9.68
2019-04-26T09:57:53.500Z,11.93
2019-04-26T10:00:28.032Z,19.02
2019-04-26T10:02:57.824Z,17.00
2019-04-26T10:05:27.459Z,14.65
2019-04-26T10:07:56.933Z,16.55
2019-04-26T10:10:31.099Z,18.07
2019-04-26T10:13:23.100Z,18.55
2019-04-26T10:16:10.410Z,18.92
2019-04-26T10:18:41.870Z,14.43
2019-04-26T10:21:11.301Z,15.58
2019-04-26T10:23:40.708Z,17.57
2019-04-26T10:26:10.230Z,15.32
2019-04-26T10:28:39.775Z,17.35
2019-04-26T10:31:09.226Z,16.90
2019-04-26T10:33:38.616Z,23.22
2019-04-26T10:36:08.069Z,18.15
2019-04-26T10:38:37.569Z,17.12
2019-04-26T10:41:07.230Z,16.75
2019-04-26T10:43:36.627Z,18.70
2019-04-26T10:46:07.770Z,18.37
2019-04-26T10:48:37.270Z,16.57
2019-04-26T10:51:07.272Z,21.55
2019-04-26T10:54:05.802Z,17.15
2019-04-26T10:57:00.942Z,24.55
2019-04-26T10:59:40.057Z,18.55
2019-04-26T11:02:12.746Z,20.82
2019-04-26T11:04:42.895Z,20.60
2019-04-26T11:07:12.508Z,15.30
2019-04-26T11:09:41.996Z,25.68
2019-04-26T11:12:14.579Z,17.85
2019-04-26T11:14:44.086Z,17.27
2019-04-26T11:17:16.036Z,18.80
2019-04-26T11:19:44.913Z,17.50
2019-04-26T11:22:14.383Z,22.62
2019-04-26T11:24:43.878Z,16.37
2019-04-26T11:27:13.325Z,20.32
2019-04-26T11:29:53.243Z,16.77
2019-04-26T11:32:13.915Z,23.00
2019-04-26T11:34:43.580Z,25.12
2019-04-26T11:37:13.442Z,20.08
2019-04-26T11:39:44.363Z,17.20
2019-04-26T11:42:13.809Z,19.65
2019-04-26T11:44:44.728Z,20.62
2019-04-26T11:47:14.494Z,22.95
2019-04-26T11:49:44.117Z,15.60
2019-04-26T11:52:13.824Z,21.48
2019-04-26T11:54:43.220Z,15.28
2019-04-26T11:57:13.648Z,20.10
2019-04-26T11:59:43.251Z,22.27
2019-04-26T12:02:16.181Z,18.60
2019-04-26T12:05:15.209Z,25.43
2019-04-26T12:07:49.775Z,18.15
2019-04-26T12:10:19.293Z,24.65
2019-04-26T12:12:51.889Z,22.67
2019-04-26T12:15:30.032Z,25.00
2019-04-26T12:17:58.294Z,19.65
2019-04-26T12:20:26.399Z,23.20
2019-04-26T12:22:53.455Z,24.18
2019-04-26T12:25:22.847Z,25.37
2019-04-26T12:27:53.549Z,23.05
2019-04-26T12:30:26.556Z,28.60
2019-04-26T12:32:54.698Z,21.48
2019-04-26T12:35:24.099Z,21.20
2019-04-26T12:37:54.780Z,25.12
2019-04-26T12:40:24.907Z,20.27
2019-04-26T12:42:54.350Z,21.75
2019-04-26T12:45:57.866Z,22.27
2019-04-26T12:48:27.313Z,23.38
2019-04-26T12:50:56.819Z,23.25
2019-04-26T12:53:26.755Z,23.77
2019-04-26T12:55:58.423Z,23.22
2019-04-26T12:58:28.101Z,26.00
2019-04-26T13:00:57.543Z,23.53
2019-04-26T13:03:29.306Z,20.77
2019-04-26T13:05:59.118Z,19.77
2019-04-26T13:08:28.668Z,25.30
2019-04-26T13:11:29.370Z,21.07
2019-04-26T13:14:03.027Z,23.57
2019-04-26T13:17:01.201Z,20.17
2019-04-26T13:19:28.641Z,28.43
2019-04-26T13:21:58.089Z,30.03
2019-04-26T13:24:27.534Z,19.53
2019-04-26T13:26:57.030Z,22.47
2019-04-26T13:29:27.227Z,24.90
2019-04-26T13:31:57.647Z,20.30
2019-04-26T13:34:27.138Z,23.60
2019-04-26T13:36:59.138Z,22.77
2019-04-26T13:39:27.795Z,22.87
2019-04-26T13:42:04.555Z,34.30
2019-04-26T13:44:45.976Z,26.12
2019-04-26T13:47:34.290Z,22.80
2019-04-26T13:50:10.748Z,28.30
2019-04-26T13:52:40.253Z,23.23
2019-04-26T13:55:09.797Z,27.37
2019-04-26T13:57:40.196Z,25.17
2019-04-26T14:00:12.368Z,23.40
2019-04-26T14:02:41.909Z,24.60
2019-04-26T14:05:15.311Z,22.50
2019-04-26T14:07:42.817Z,21.70
2019-04-26T14:10:12.464Z,27.63
2019-04-26T14:12:41.959Z,26.13
2019-04-26T14:15:11.504Z,32.33
2019-04-26T14:17:40.886Z,20.80
2019-04-26T14:20:11.598Z,23.57
2019-04-26T14:22:47.690Z,25.10
2019-04-26T14:25:19.935Z,33.23
2019-04-26T14:27:51.796Z,25.33
2019-04-26T14:30:21.665Z,29.13
2019-04-26T14:32:53.150Z,24.13
2019-04-26T14:35:22.744Z,28.43
2019-04-26T14:37:52.299Z,28.83
2019-04-26T14:40:22.280Z,26.90
2019-04-26T14:43:05.629Z,25.63
2019-04-26T14:45:24.237Z,28.50
2019-04-26T14:47:53.827Z,26.63
2019-04-26T14:50:23.478Z,21.53
2019-04-26T14:52:53.034Z,22.20
2019-04-26T14:55:22.905Z,19.83
2019-04-26T14:57:54.030Z,23.27
2019-04-26T15:00:29.137Z,25.40
2019-04-26T15:03:17.314Z,29.20
2019-04-26T15:05:57.794Z,30.23
2019-04-26T15:08:27.236Z,24.90
2019-04-26T15:11:00.998Z,19.37
2019-04-26T15:13:28.291Z,19.33
2019-04-26T15:15:57.739Z,21.53
2019-04-26T15:18:29.346Z,23.07
2019-04-26T15:20:58.694Z,27.70
2019-04-26T15:23:28.155Z,24.60
2019-04-26T15:25:58.629Z,20.70
2019-04-26T15:28:28.392Z,22.60
2019-04-26T15:30:57.861Z,22.77
2019-04-26T15:33:27.394Z,20.30
2019-04-26T15:35:56.952Z,22.13
2019-04-26T15:38:26.448Z,25.50
2019-04-26T15:41:26.939Z,21.17
2019-04-26T15:44:15.318Z,22.07
2019-04-26T15:46:55.731Z,30.57
2019-04-26T15:49:53.455Z,20.87
2019-04-26T15:52:22.914Z,26.07
2019-04-26T15:54:58.138Z,19.20
2019-04-26T15:57:24.489Z,18.50
2019-04-26T15:59:58.038Z,22.03
2019-04-26T16:02:26.469Z,19.53
2019-04-26T16:04:56.168Z,24.90
2019-04-26T16:07:28.740Z,23.93
2019-04-26T16:09:57.558Z,20.50
2019-04-26T16:12:27.316Z,22.90
2019-04-26T16:14:56.837Z,21.20
2019-04-26T16:17:26.585Z,25.67
2019-04-26T16:20:00.035Z,25.07
2019-04-26T16:22:30.072Z,28.47
2019-04-26T16:25:03.973Z,24.97
2019-04-26T16:27:32.417Z,24.13
2019-04-26T16:30:09.725Z,21.77
2019-04-26T16:33:13.477Z,32.70
2019-04-26T16:35:43.443Z,24.30
2019-04-26T16:38:34.946Z,26.97
2019-04-26T16:41:05.130Z,23.53
2019-04-26T16:43:40.008Z,28.53
2019-04-26T16:46:06.400Z,23.87
2019-04-26T16:48:36.171Z,25.67
2019-04-26T16:51:08.464Z,26.67
2019-04-26T16:53:52.092Z,28.53
2019-04-26T16:56:08.117Z,25.67
2019-04-26T16:58:42.234Z,33.93
2019-04-26T17:01:10.313Z,24.63
2019-04-26T17:03:45.228Z,26.87
2019-04-26T17:06:14.191Z,23.87
2019-04-26T17:08:49.110Z,27.30
2019-04-26T17:11:14.075Z,30.80
2019-04-26T17:13:51.218Z,20.83
2019-04-26T17:16:14.816Z,27.60
2019-04-26T17:18:44.314Z,23.67
2019-04-26T17:21:17.615Z,25.87
2019-04-26T17:24:12.191Z,25.73
2019-04-26T17:26:45.785Z,29.10
2019-04-26T17:29:15.321Z,29.73
2019-04-26T17:31:45.042Z,33.07
2019-04-26T17:34:14.491Z,25.77
2019-04-26T17:36:46.324Z,24.50
2019-04-26T17:39:17.189Z,22.10
2019-04-26T17:41:50.661Z,25.50
2019-04-26T17:44:20.589Z,24.43
2019-04-26T17:46:56.235Z,25.80
2019-04-26T17:49:21.460Z,26.83
2019-04-26T17:51:57.713Z,22.90
2019-04-26T17:54:41.632Z,23.57
2019-04-26T17:56:53.716Z,22.37
2019-04-26T17:59:33.349Z,21.10
2019-04-26T18:02:00.879Z,23.87
2019-04-26T18:04:33.735Z,23.87
2019-04-26T18:07:03.898Z,27.47
2019-04-26T18:09:42.949Z,22.63
2019-04-26T18:12:03.336Z,28.27
2019-04-26T18:14:32.093Z,24.07
2019-04-26T18:17:08.026Z,20.23
2019-04-26T18:19:54.373Z,21.00
2019-04-26T18:22:40.065Z,27.00
2019-04-26T18:25:12.434Z,23.57
2019-04-26T18:27:43.398Z,19.37
2019-04-26T18:30:14.282Z,22.07
2019-04-26T18:32:47.742Z,26.30
2019-04-26T18:35:16.940Z,20.30
2019-04-26T18:37:46.917Z,23.37
2019-04-26T18:40:16.511Z,27.53
2019-04-26T18:42:45.916Z,25.73
2019-04-26T18:45:21.258Z,21.33
2019-04-26T18:47:46.777Z,18.10
2019-04-26T18:50:16.759Z,21.90
2019-04-26T18:53:19.571Z,26.13
2019-04-26T18:55:49.412Z,20.30
2019-04-26T18:58:19.158Z,14.43
2019-04-26T19:00:48.720Z,22.63
2019-04-26T19:03:19.142Z,21.60
2019-04-26T19:05:48.798Z,23.00
2019-04-26T19:08:22.373Z,26.07
2019-04-26T19:10:59.226Z,20.23
2019-04-26T19:13:36.612Z,16.57
2019-04-26T19:16:18.179Z,17.50
2019-04-26T19:18:57.600Z,18.80
2019-04-26T19:21:40.265Z,17.13
2019-04-26T19:24:17.132Z,26.53
2019-04-26T19:26:44.201Z,18.37
2019-04-26T19:29:18.213Z,21.30
2019-04-26T19:31:44.063Z,25.37
2019-04-26T19:34:13.667Z,22.33
2019-04-26T19:36:43.148Z,22.20
2019-04-26T19:39:22.438Z,19.10
2019-04-26T19:41:52.055Z,25.10
2019-04-26T19:44:22.148Z,21.97
2019-04-26T19:47:06.479Z,24.80
2019-04-26T19:49:53.694Z,21.30
2019-04-26T19:52:45.150Z,20.20
2019-04-26T19:55:54.854Z,22.37
2019-04-26T19:58:25.392Z,16.53
2019-04-26T20:00:55.306Z,16.47
2019-04-26T20:03:28.118Z,23.87
2019-04-26T20:05:57.530Z,23.53
2019-04-26T20:08:29.320Z,19.30
2019-04-26T20:10:58.284Z,27.67
2019-04-26T20:13:27.711Z,26.47
2019-04-26T20:16:01.791Z,23.80
2019-04-26T20:18:38.991Z,19.90
2019-04-26T20:21:12.573Z,16.50
2019-04-26T20:23:42.558Z,24.17
2019-04-26T20:26:09.397Z,20.80
2019-04-26T20:28:38.900Z,21.50
2019-04-26T20:31:37.555Z,21.67
2019-04-26T20:34:10.908Z,19.37
2019-04-26T20:36:41.642Z,25.00
2019-04-26T20:39:12.441Z,20.07
2019-04-26T20:41:41.614Z,25.63
2019-04-26T20:44:13.440Z,23.23
2019-04-26T20:46:43.201Z,23.27
2019-04-26T20:49:12.720Z,20.17
2019-04-26T20:51:46.079Z,21.97
2019-04-26T20:54:16.338Z,21.70
2019-04-26T20:56:46.253Z,28.67
2019-04-26T20:59:16.631Z,27.40
2019-04-26T21:02:00.447Z,24.33
2019-04-26T21:04:34.961Z,20.97
2019-04-26T21:06:49.647Z,21.13
2019-04-26T21:09:19.608Z,23.20
2019-04-26T21:11:49.391Z,22.97
2019-04-26T21:14:18.986Z,24.07
2019-04-26T21:16:49.498Z,26.93
2019-04-26T21:19:20.299Z,20.00
2019-04-26T21:21:52.185Z,26.80
2019-04-26T21:24:23.643Z,26.67
2019-04-26T21:27:25.920Z,21.20
2019-04-26T21:30:08.507Z,21.00
2019-04-26T21:32:59.160Z,22.97
2019-04-26T21:35:33.698Z,22.93
2019-04-26T21:38:07.244Z,22.30
2019-04-26T21:40:45.331Z,21.83
2019-04-26T21:43:14.840Z,22.07
2019-04-26T21:45:44.423Z,22.50
2019-04-26T21:48:14.258Z,23.97
2019-04-26T21:50:44.459Z,21.77
2019-04-26T21:53:14.020Z,25.50
2019-04-26T21:55:43.559Z,28.03
2019-04-26T21:58:14.172Z,22.07
2019-04-26T22:01:03.059Z,19.43
2019-04-26T22:03:32.958Z,23.27
2019-04-26T22:06:04.048Z,25.67
2019-04-26T22:08:36.047Z,26.63
2019-04-26T22:11:05.671Z,22.00
2019-04-26T22:13:44.975Z,26.40
2019-04-26T22:16:34.283Z,22.80
2019-04-26T22:19:12.710Z,18.30
2019-04-26T22:22:05.804Z,25.07
2019-04-26T22:24:34.894Z,22.23
2019-04-26T22:27:04.556Z,24.80
2019-04-26T22:29:34.059Z,20.20
2019-04-26T22:32:03.806Z,23.63
2019-04-26T22:34:33.295Z,22.67
2019-04-26T22:37:11.522Z,20.97
2019-04-26T22:39:39.862Z,22.57
2019-04-26T22:42:05.958Z,28.40
2019-04-26T22:44:43.703Z,28.53
2019-04-26T22:47:25.220Z,22.10
2019-04-26T22:49:54.759Z,24.13
2019-04-26T22:52:24.559Z,22.10
2019-04-26T22:54:54.186Z,21.83
2019-04-26T22:57:23.810Z,24.77
2019-04-26T22:59:53.640Z,22.47
2019-04-26T23:02:27.572Z,22.87
2019-04-26T23:04:56.104Z,24.17
2019-04-26T23:07:26.550Z,20.77
2019-04-26T23:09:55.960Z,22.77
2019-04-26T23:12:47.176Z,21.93
2019-04-26T23:15:47.892Z,22.33
2019-04-26T23:18:51.476Z,18.43
2019-04-26T23:21:25.056Z,18.67
2019-04-26T23:23:54.636Z,21.43
2019-04-26T23:26:24.168Z,20.97
2019-04-26T23:28:53.683Z,25.03
2019-04-26T23:31:23.743Z,25.80
2019-04-26T23:33:53.879Z,19.90
2019-04-26T23:36:24.168Z,24.17
2019-04-26T23:38:53.821Z,27.07
2019-04-26T23:41:23.693Z,19.83
2019-04-26T23:43:56.825Z,28.27
2019-04-26T23:46:25.935Z,23.50
2019-04-26T23:48:55.647Z,23.90
2019-04-26T23:51:26.156Z,23.37
2019-04-26T23:53:58.153Z,24.63
2019-04-26T23:56:27.617Z,25.80
2019-04-26T23:58:57.073Z,23.80
